sensor_id;sensor_type;location;lat;lon;timestamp;temperature;humidity
59148;DHT22;44930;52.878;6.168;2022-08-11T00:00:12;17.80;99.90
59148;DHT22;44930;52.878;6.168;2022-08-11T00:02:39;17.60;99.90
59148;DHT22;44930;52.878;6.168;2022-08-11T00:05:25;17.60;99.90
59148;DHT22;44930;52.878;6.168;2022-08-11T00:07:53;17.40;99.90
59148;DHT22;44930;52.878;6.168;2022-08-11T00:10:25;17.40;99.90
59148;DHT22;44930;52.878;6.168;2022-08-11T00:12:54;17.20;99.90
59148;DHT22;44930;52.878;6.168;2022-08-11T00:15:23;17.10;99.90
59148;DHT22;44930;52.878;6.168;2022-08-11T00:17:49;17.40;99.90
59148;DHT22;44930;52.878;6.168;2022-08-11T00:20:20;16.90;99.90
59148;DHT22;44930;52.878;6.168;2022-08-11T00:22:46;17.50;99.90
59148;DHT22;44930;52.878;6.168;2022-08-11T00:25:17;17.00;99.90
59148;DHT22;44930;52.878;6.168;2022-08-11T00:27:44;18.40;99.90
59148;DHT22;44930;52.878;6.168;2022-08-11T00:30:12;17.00;99.90
59148;DHT22;44930;52.878;6.168;2022-08-11T00:32:42;17.10;99.90
59148;DHT22;44930;52.878;6.168;2022-08-11T00:35:12;17.50;99.90
59148;DHT22;44930;52.878;6.168;2022-08-11T00:37:47;17.30;99.90
59148;DHT22;44930;52.878;6.168;2022-08-11T00:40:19;17.30;99.90
59148;DHT22;44930;52.878;6.168;2022-08-11T00:45:38;17.30;99.90
59148;DHT22;44930;52.878;6.168;2022-08-11T00:48:24;17.30;99.90
59148;DHT22;44930;52.878;6.168;2022-08-11T00:53:54;16.70;99.90
59148;DHT22;44930;52.878;6.168;2022-08-11T01:05:37;16.70;99.90
59148;DHT22;44930;52.878;6.168;2022-08-11T01:08:28;16.90;99.90
59148;DHT22;44930;52.878;6.168;2022-08-11T01:11:15;17.00;99.90
59148;DHT22;44930;52.878;6.168;2022-08-11T01:14:18;16.60;99.90
59148;DHT22;44930;52.878;6.168;2022-08-11T01:19:50;17.00;99.90
59148;DHT22;44930;52.878;6.168;2022-08-11T01:22:57;16.90;99.90
59148;DHT22;44930;52.878;6.168;2022-08-11T01:37:14;16.90;99.90
59148;DHT22;44930;52.878;6.168;2022-08-11T01:40:03;16.60;99.90
59148;DHT22;44930;52.878;6.168;2022-08-11T01:48:43;16.40;99.90
59148;DHT22;44930;52.878;6.168;2022-08-11T01:54:34;17.00;99.90
59148;DHT22;44930;52.878;6.168;2022-08-11T01:57:27;16.70;99.90
59148;DHT22;44930;52.878;6.168;2022-08-11T02:00:10;16.50;99.90
59148;DHT22;44930;52.878;6.168;2022-08-11T02:02:52;16.40;99.90
59148;DHT22;44930;52.878;6.168;2022-08-11T02:08:51;16.20;99.90
59148;DHT22;44930;52.878;6.168;2022-08-11T02:11:29;16.00;99.90
59148;DHT22;44930;52.878;6.168;2022-08-11T02:14:19;16.80;99.90
59148;DHT22;44930;52.878;6.168;2022-08-11T02:17:19;16.50;99.90
59148;DHT22;44930;52.878;6.168;2022-08-11T02:20:03;16.70;99.90
59148;DHT22;44930;52.878;6.168;2022-08-11T02:23:25;16.40;99.90
59148;DHT22;44930;52.878;6.168;2022-08-11T02:26:11;16.30;99.90
59148;DHT22;44930;52.878;6.168;2022-08-11T02:37:26;16.20;99.90
59148;DHT22;44930;52.878;6.168;2022-08-11T02:45:33;16.30;99.90
59148;DHT22;44930;52.878;6.168;2022-08-11T02:54:14;16.20;99.90
59148;DHT22;44930;52.878;6.168;2022-08-11T02:57:09;16.60;99.90
59148;DHT22;44930;52.878;6.168;2022-08-11T03:00:10;16.60;99.90
59148;DHT22;44930;52.878;6.168;2022-08-11T03:03:12;15.90;99.90
59148;DHT22;44930;52.878;6.168;2022-08-11T03:14:24;15.70;99.90
59148;DHT22;44930;52.878;6.168;2022-08-11T03:17:22;16.10;99.90
59148;DHT22;44930;52.878;6.168;2022-08-11T03:22:39;15.80;99.90
59148;DHT22;44930;52.878;6.168;2022-08-11T03:25:13;15.70;99.90
59148;DHT22;44930;52.878;6.168;2022-08-11T03:28:00;16.10;99.90
59148;DHT22;44930;52.878;6.168;2022-08-11T03:30:49;15.60;99.90
59148;DHT22;44930;52.878;6.168;2022-08-11T03:33:32;15.90;99.90
59148;DHT22;44930;52.878;6.168;2022-08-11T03:39:58;15.90;99.90
59148;DHT22;44930;52.878;6.168;2022-08-11T04:05:31;15.50;99.90
59148;DHT22;44930;52.878;6.168;2022-08-11T04:11:24;15.20;99.90
59148;DHT22;44930;52.878;6.168;2022-08-11T04:22:47;14.90;99.90
59148;DHT22;44930;52.878;6.168;2022-08-11T04:25:22;14.60;99.90
59148;DHT22;44930;52.878;6.168;2022-08-11T04:28:11;15.00;99.90
59148;DHT22;44930;52.878;6.168;2022-08-11T04:33:34;14.60;99.90
59148;DHT22;44930;52.878;6.168;2022-08-11T04:36:29;14.90;99.90
59148;DHT22;44930;52.878;6.168;2022-08-11T04:43:12;14.50;99.90
59148;DHT22;44930;52.878;6.168;2022-08-11T05:01:05;14.90;99.90
59148;DHT22;44930;52.878;6.168;2022-08-11T05:13:11;14.90;99.90
59148;DHT22;44930;52.878;6.168;2022-08-11T05:16:09;15.40;99.90
59148;DHT22;44930;52.878;6.168;2022-08-11T05:18:55;15.10;99.90
59148;DHT22;44930;52.878;6.168;2022-08-11T05:21:43;15.10;99.90
59148;DHT22;44930;52.878;6.168;2022-08-11T05:27:22;15.70;99.90
59148;DHT22;44930;52.878;6.168;2022-08-11T05:30:10;15.40;99.90
59148;DHT22;44930;52.878;6.168;2022-08-11T05:33:21;15.70;99.90
59148;DHT22;44930;52.878;6.168;2022-08-11T05:36:54;15.80;99.90
59148;DHT22;44930;52.878;6.168;2022-08-11T05:39:24;15.70;99.90
59148;DHT22;44930;52.878;6.168;2022-08-11T05:42:10;15.60;99.90
59148;DHT22;44930;52.878;6.168;2022-08-11T05:45:00;16.20;99.90
59148;DHT22;44930;52.878;6.168;2022-08-11T05:47:49;16.30;99.90
59148;DHT22;44930;52.878;6.168;2022-08-11T05:50:33;16.00;99.90
59148;DHT22;44930;52.878;6.168;2022-08-11T05:53:18;16.20;99.90
59148;DHT22;44930;52.878;6.168;2022-08-11T05:56:06;16.40;99.90
59148;DHT22;44930;52.878;6.168;2022-08-11T05:58:52;16.30;99.90
59148;DHT22;44930;52.878;6.168;2022-08-11T06:01:23;16.50;99.90
59148;DHT22;44930;52.878;6.168;2022-08-11T06:03:51;16.30;99.90
59148;DHT22;44930;52.878;6.168;2022-08-11T06:06:36;16.30;99.90
59148;DHT22;44930;52.878;6.168;2022-08-11T06:09:05;16.60;99.90
59148;DHT22;44930;52.878;6.168;2022-08-11T06:11:37;16.80;99.90
59148;DHT22;44930;52.878;6.168;2022-08-11T06:14:06;17.20;99.90
59148;DHT22;44930;52.878;6.168;2022-08-11T06:16:33;16.70;99.90
59148;DHT22;44930;52.878;6.168;2022-08-11T06:18:59;17.00;99.90
59148;DHT22;44930;52.878;6.168;2022-08-11T06:21:25;17.20;99.90
59148;DHT22;44930;52.878;6.168;2022-08-11T06:23:52;17.40;99.90
59148;DHT22;44930;52.878;6.168;2022-08-11T06:26:18;17.50;99.90
59148;DHT22;44930;52.878;6.168;2022-08-11T06:28:47;17.50;99.90
59148;DHT22;44930;52.878;6.168;2022-08-11T06:31:16;17.20;99.90
59148;DHT22;44930;52.878;6.168;2022-08-11T06:34:08;17.30;99.90
59148;DHT22;44930;52.878;6.168;2022-08-11T06:36:56;17.70;99.90
59148;DHT22;44930;52.878;6.168;2022-08-11T06:42:07;17.60;99.90
59148;DHT22;44930;52.878;6.168;2022-08-11T06:47:22;18.30;99.90
59148;DHT22;44930;52.878;6.168;2022-08-11T06:49:49;17.90;99.90
59148;DHT22;44930;52.878;6.168;2022-08-11T06:52:35;18.10;99.90
59148;DHT22;44930;52.878;6.168;2022-08-11T06:55:21;18.60;99.90
59148;DHT22;44930;52.878;6.168;2022-08-11T06:58:12;18.20;99.90
59148;DHT22;44930;52.878;6.168;2022-08-11T07:01:02;18.60;99.90
59148;DHT22;44930;52.878;6.168;2022-08-11T07:03:35;18.60;99.90
59148;DHT22;44930;52.878;6.168;2022-08-11T07:12:25;19.00;99.90
59148;DHT22;44930;52.878;6.168;2022-08-11T07:15:14;19.20;99.90
59148;DHT22;44930;52.878;6.168;2022-08-11T07:18:02;19.60;99.90
59148;DHT22;44930;52.878;6.168;2022-08-11T07:20:48;19.70;99.90
59148;DHT22;44930;52.878;6.168;2022-08-11T07:23:34;19.20;99.90
59148;DHT22;44930;52.878;6.168;2022-08-11T07:26:23;19.70;99.90
59148;DHT22;44930;52.878;6.168;2022-08-11T07:29:10;19.60;99.90
59148;DHT22;44930;52.878;6.168;2022-08-11T07:36:58;20.30;99.90
59148;DHT22;44930;52.878;6.168;2022-08-11T07:39:26;20.50;99.90
59148;DHT22;44930;52.878;6.168;2022-08-11T07:41:54;20.10;99.90
59148;DHT22;44930;52.878;6.168;2022-08-11T07:44:23;20.40;99.90
59148;DHT22;44930;52.878;6.168;2022-08-11T07:46:54;20.00;99.90
59148;DHT22;44930;52.878;6.168;2022-08-11T07:49:39;20.00;99.90
59148;DHT22;44930;52.878;6.168;2022-08-11T07:52:32;20.30;99.90
59148;DHT22;44930;52.878;6.168;2022-08-11T07:55:10;20.50;99.90
59148;DHT22;44930;52.878;6.168;2022-08-11T07:57:36;20.80;99.90
59148;DHT22;44930;52.878;6.168;2022-08-11T08:00:20;20.80;99.90
59148;DHT22;44930;52.878;6.168;2022-08-11T08:03:05;21.00;99.90
59148;DHT22;44930;52.878;6.168;2022-08-11T08:05:50;20.80;99.90
59148;DHT22;44930;52.878;6.168;2022-08-11T08:08:36;21.20;99.90
59148;DHT22;44930;52.878;6.168;2022-08-11T08:11:22;21.00;99.90
59148;DHT22;44930;52.878;6.168;2022-08-11T08:14:09;21.40;99.90
59148;DHT22;44930;52.878;6.168;2022-08-11T08:16:56;21.30;99.90
59148;DHT22;44930;52.878;6.168;2022-08-11T08:19:47;21.80;99.90
59148;DHT22;44930;52.878;6.168;2022-08-11T08:22:17;21.50;99.90
59148;DHT22;44930;52.878;6.168;2022-08-11T08:24:43;21.80;99.90
59148;DHT22;44930;52.878;6.168;2022-08-11T08:27:09;22.10;99.90
59148;DHT22;44930;52.878;6.168;2022-08-11T08:29:38;21.70;99.90
59148;DHT22;44930;52.878;6.168;2022-08-11T08:32:23;22.50;99.90
59148;DHT22;44930;52.878;6.168;2022-08-11T08:34:50;22.10;99.90
59148;DHT22;44930;52.878;6.168;2022-08-11T08:37:18;22.10;99.90
59148;DHT22;44930;52.878;6.168;2022-08-11T08:39:45;22.90;99.90
59148;DHT22;44930;52.878;6.168;2022-08-11T08:42:17;22.30;99.90
59148;DHT22;44930;52.878;6.168;2022-08-11T08:44:45;23.00;99.90
59148;DHT22;44930;52.878;6.168;2022-08-11T08:47:15;23.40;99.90
59148;DHT22;44930;52.878;6.168;2022-08-11T08:49:48;23.30;99.90
59148;DHT22;44930;52.878;6.168;2022-08-11T08:52:18;23.40;99.90
59148;DHT22;44930;52.878;6.168;2022-08-11T08:54:45;23.40;99.90
59148;DHT22;44930;52.878;6.168;2022-08-11T08:57:13;23.70;99.90
59148;DHT22;44930;52.878;6.168;2022-08-11T08:59:44;23.80;99.90
59148;DHT22;44930;52.878;6.168;2022-08-11T09:02:12;23.50;99.90
59148;DHT22;44930;52.878;6.168;2022-08-11T09:04:39;24.00;99.90
59148;DHT22;44930;52.878;6.168;2022-08-11T09:07:14;23.70;99.90
59148;DHT22;44930;52.878;6.168;2022-08-11T09:09:42;23.60;99.90
59148;DHT22;44930;52.878;6.168;2022-08-11T09:12:10;24.40;99.90
59148;DHT22;44930;52.878;6.168;2022-08-11T09:14:38;24.50;99.90
59148;DHT22;44930;52.878;6.168;2022-08-11T09:17:24;24.30;99.90
59148;DHT22;44930;52.878;6.168;2022-08-11T09:19:54;24.20;99.90
59148;DHT22;44930;52.878;6.168;2022-08-11T09:22:24;26.00;99.90
59148;DHT22;44930;52.878;6.168;2022-08-11T09:25:09;24.60;99.90
59148;DHT22;44930;52.878;6.168;2022-08-11T09:27:53;24.80;99.90
59148;DHT22;44930;52.878;6.168;2022-08-11T09:30:22;24.60;99.90
59148;DHT22;44930;52.878;6.168;2022-08-11T09:32:58;25.00;99.90
59148;DHT22;44930;52.878;6.168;2022-08-11T09:35:29;25.30;99.90
59148;DHT22;44930;52.878;6.168;2022-08-11T09:37:56;25.10;99.90
59148;DHT22;44930;52.878;6.168;2022-08-11T09:40:57;25.10;99.90
59148;DHT22;44930;52.878;6.168;2022-08-11T09:43:25;25.80;99.90
59148;DHT22;44930;52.878;6.168;2022-08-11T09:46:12;25.40;99.90
59148;DHT22;44930;52.878;6.168;2022-08-11T09:48:41;27.10;99.90
59148;DHT22;44930;52.878;6.168;2022-08-11T09:51:09;26.30;99.90
59148;DHT22;44930;52.878;6.168;2022-08-11T09:53:38;26.70;99.90
59148;DHT22;44930;52.878;6.168;2022-08-11T09:56:14;26.00;99.90
59148;DHT22;44930;52.878;6.168;2022-08-11T09:58:58;26.70;99.90
59148;DHT22;44930;52.878;6.168;2022-08-11T10:01:29;26.50;99.90
59148;DHT22;44930;52.878;6.168;2022-08-11T10:04:12;27.50;99.90
59148;DHT22;44930;52.878;6.168;2022-08-11T10:06:43;26.50;99.30
59148;DHT22;44930;52.878;6.168;2022-08-11T10:09:52;28.20;99.20
59148;DHT22;44930;52.878;6.168;2022-08-11T10:12:23;26.30;98.00
59148;DHT22;44930;52.878;6.168;2022-08-11T10:15:00;27.00;97.90
59148;DHT22;44930;52.878;6.168;2022-08-11T10:17:48;28.00;98.20
59148;DHT22;44930;52.878;6.168;2022-08-11T10:20:34;27.10;96.90
59148;DHT22;44930;52.878;6.168;2022-08-11T10:23:02;28.00;97.80
59148;DHT22;44930;52.878;6.168;2022-08-11T10:25:47;27.30;97.00
59148;DHT22;44930;52.878;6.168;2022-08-11T10:28:34;27.30;97.30
59148;DHT22;44930;52.878;6.168;2022-08-11T10:31:01;27.20;96.50
59148;DHT22;44930;52.878;6.168;2022-08-11T10:33:47;27.30;95.90
59148;DHT22;44930;52.878;6.168;2022-08-11T10:36:31;27.50;95.90
59148;DHT22;44930;52.878;6.168;2022-08-11T10:38:59;28.60;96.90
59148;DHT22;44930;52.878;6.168;2022-08-11T10:41:25;27.30;95.70
59148;DHT22;44930;52.878;6.168;2022-08-11T10:44:10;28.40;95.60
59148;DHT22;44930;52.878;6.168;2022-08-11T10:46:37;27.50;95.00
59148;DHT22;44930;52.878;6.168;2022-08-11T10:49:23;28.50;95.50
59148;DHT22;44930;52.878;6.168;2022-08-11T10:51:50;28.00;95.20
59148;DHT22;44930;52.878;6.168;2022-08-11T10:54:35;28.60;94.70
59148;DHT22;44930;52.878;6.168;2022-08-11T10:57:19;28.20;93.90
59148;DHT22;44930;52.878;6.168;2022-08-11T11:00:08;28.10;93.80
59148;DHT22;44930;52.878;6.168;2022-08-11T11:02:34;27.80;92.90
59148;DHT22;44930;52.878;6.168;2022-08-11T11:05:20;28.30;93.20
59148;DHT22;44930;52.878;6.168;2022-08-11T11:07:51;28.00;93.00
59148;DHT22;44930;52.878;6.168;2022-08-11T11:10:19;28.30;92.80
59148;DHT22;44930;52.878;6.168;2022-08-11T11:12:49;29.20;92.90
59148;DHT22;44930;52.878;6.168;2022-08-11T11:15:36;29.00;92.60
59148;DHT22;44930;52.878;6.168;2022-08-11T11:18:26;29.00;92.90
59148;DHT22;44930;52.878;6.168;2022-08-11T11:21:01;28.80;93.00
59148;DHT22;44930;52.878;6.168;2022-08-11T11:29:23;28.50;90.30
59148;DHT22;44930;52.878;6.168;2022-08-11T11:35:10;29.80;90.40
59148;DHT22;44930;52.878;6.168;2022-08-11T11:37:38;29.20;90.10
59148;DHT22;44930;52.878;6.168;2022-08-11T11:40:10;29.60;91.40
59148;DHT22;44930;52.878;6.168;2022-08-11T11:42:40;30.20;91.00
59148;DHT22;44930;52.878;6.168;2022-08-11T11:45:08;30.00;90.30
59148;DHT22;44930;52.878;6.168;2022-08-11T11:47:36;29.80;90.10
59148;DHT22;44930;52.878;6.168;2022-08-11T11:50:02;29.60;89.40
59148;DHT22;44930;52.878;6.168;2022-08-11T11:52:29;29.70;89.00
59148;DHT22;44930;52.878;6.168;2022-08-11T11:54:56;30.00;88.40
59148;DHT22;44930;52.878;6.168;2022-08-11T11:57:23;30.80;89.60
59148;DHT22;44930;52.878;6.168;2022-08-11T12:00:09;31.40;88.50
59148;DHT22;44930;52.878;6.168;2022-08-11T12:02:56;29.80;87.70
59148;DHT22;44930;52.878;6.168;2022-08-11T12:05:24;30.00;86.60
59148;DHT22;44930;52.878;6.168;2022-08-11T12:07:51;30.10;85.30
59148;DHT22;44930;52.878;6.168;2022-08-11T12:10:37;30.00;85.50
59148;DHT22;44930;52.878;6.168;2022-08-11T12:13:03;29.90;87.00
59148;DHT22;44930;52.878;6.168;2022-08-11T12:15:49;30.20;86.80
59148;DHT22;44930;52.878;6.168;2022-08-11T12:18:17;30.00;86.40
59148;DHT22;44930;52.878;6.168;2022-08-11T12:20:43;30.10;86.20
59148;DHT22;44930;52.878;6.168;2022-08-11T12:23:10;30.40;85.60
59148;DHT22;44930;52.878;6.168;2022-08-11T12:25:55;30.10;85.50
59148;DHT22;44930;52.878;6.168;2022-08-11T12:28:40;30.80;85.40
59148;DHT22;44930;52.878;6.168;2022-08-11T12:31:06;30.50;81.80
59148;DHT22;44930;52.878;6.168;2022-08-11T12:33:38;30.00;81.00
59148;DHT22;44930;52.878;6.168;2022-08-11T12:36:07;30.80;79.70
59148;DHT22;44930;52.878;6.168;2022-08-11T12:38:33;30.60;81.30
59148;DHT22;44930;52.878;6.168;2022-08-11T12:41:01;30.40;81.90
59148;DHT22;44930;52.878;6.168;2022-08-11T12:43:45;30.80;82.20
59148;DHT22;44930;52.878;6.168;2022-08-11T12:46:35;30.50;83.30
59148;DHT22;44930;52.878;6.168;2022-08-11T12:49:13;30.60;81.50
59148;DHT22;44930;52.878;6.168;2022-08-11T12:52:08;30.50;79.90
59148;DHT22;44930;52.878;6.168;2022-08-11T12:54:50;30.80;79.60
59148;DHT22;44930;52.878;6.168;2022-08-11T12:57:40;30.30;79.70
59148;DHT22;44930;52.878;6.168;2022-08-11T13:00:25;30.70;79.90
59148;DHT22;44930;52.878;6.168;2022-08-11T13:03:11;31.10;81.00
59148;DHT22;44930;52.878;6.168;2022-08-11T13:05:59;31.00;79.30
59148;DHT22;44930;52.878;6.168;2022-08-11T13:08:27;30.40;79.00
59148;DHT22;44930;52.878;6.168;2022-08-11T13:10:56;30.50;78.80
59148;DHT22;44930;52.878;6.168;2022-08-11T13:13:52;30.40;78.90
59148;DHT22;44930;52.878;6.168;2022-08-11T13:16:26;31.00;79.50
59148;DHT22;44930;52.878;6.168;2022-08-11T13:18:53;30.80;77.40
59148;DHT22;44930;52.878;6.168;2022-08-11T13:21:20;31.20;79.20
59148;DHT22;44930;52.878;6.168;2022-08-11T13:23:49;31.20;75.80
59148;DHT22;44930;52.878;6.168;2022-08-11T13:26:16;31.10;77.40
59148;DHT22;44930;52.878;6.168;2022-08-11T13:28:42;31.10;76.30
59148;DHT22;44930;52.878;6.168;2022-08-11T13:31:07;31.50;75.80
59148;DHT22;44930;52.878;6.168;2022-08-11T13:33:46;30.80;74.80
59148;DHT22;44930;52.878;6.168;2022-08-11T13:36:18;30.60;74.50
59148;DHT22;44930;52.878;6.168;2022-08-11T13:38:44;31.30;75.50
59148;DHT22;44930;52.878;6.168;2022-08-11T13:41:10;31.10;75.70
59148;DHT22;44930;52.878;6.168;2022-08-11T13:43:55;31.10;74.90
59148;DHT22;44930;52.878;6.168;2022-08-11T13:46:22;30.90;74.60
59148;DHT22;44930;52.878;6.168;2022-08-11T13:48:50;31.30;75.20
59148;DHT22;44930;52.878;6.168;2022-08-11T13:51:16;31.10;74.20
59148;DHT22;44930;52.878;6.168;2022-08-11T13:54:05;31.50;74.10
59148;DHT22;44930;52.878;6.168;2022-08-11T13:56:34;31.10;73.40
59148;DHT22;44930;52.878;6.168;2022-08-11T13:59:01;32.30;73.50
59148;DHT22;44930;52.878;6.168;2022-08-11T14:01:30;31.90;72.50
59148;DHT22;44930;52.878;6.168;2022-08-11T14:04:07;31.60;72.60
59148;DHT22;44930;52.878;6.168;2022-08-11T14:06:34;31.40;73.00
59148;DHT22;44930;52.878;6.168;2022-08-11T14:09:03;31.50;72.60
59148;DHT22;44930;52.878;6.168;2022-08-11T14:11:32;31.30;72.10
59148;DHT22;44930;52.878;6.168;2022-08-11T14:14:18;31.60;73.90
59148;DHT22;44930;52.878;6.168;2022-08-11T14:16:46;31.40;73.00
59148;DHT22;44930;52.878;6.168;2022-08-11T14:19:13;31.30;74.40
59148;DHT22;44930;52.878;6.168;2022-08-11T14:21:41;31.30;72.60
59148;DHT22;44930;52.878;6.168;2022-08-11T14:24:27;30.90;73.10
59148;DHT22;44930;52.878;6.168;2022-08-11T14:26:54;32.10;73.20
59148;DHT22;44930;52.878;6.168;2022-08-11T14:29:22;31.00;73.80
59148;DHT22;44930;52.878;6.168;2022-08-11T14:31:56;31.20;73.80
59148;DHT22;44930;52.878;6.168;2022-08-11T14:34:26;31.30;71.60
59148;DHT22;44930;52.878;6.168;2022-08-11T14:37:00;31.40;72.70
59148;DHT22;44930;52.878;6.168;2022-08-11T14:39:33;32.50;74.30
59148;DHT22;44930;52.878;6.168;2022-08-11T14:42:04;32.50;73.80
59148;DHT22;44930;52.878;6.168;2022-08-11T14:44:52;30.80;72.80
59148;DHT22;44930;52.878;6.168;2022-08-11T14:47:40;31.10;73.60
59148;DHT22;44930;52.878;6.168;2022-08-11T14:50:12;30.90;73.80
59148;DHT22;44930;52.878;6.168;2022-08-11T14:52:47;31.00;72.60
59148;DHT22;44930;52.878;6.168;2022-08-11T14:55:14;31.30;73.90
59148;DHT22;44930;52.878;6.168;2022-08-11T14:57:59;31.00;73.40
59148;DHT22;44930;52.878;6.168;2022-08-11T15:00:25;31.80;72.90
59148;DHT22;44930;52.878;6.168;2022-08-11T15:02:52;31.30;72.20
59148;DHT22;44930;52.878;6.168;2022-08-11T15:08:13;31.10;70.50
59148;DHT22;44930;52.878;6.168;2022-08-11T15:10:40;32.10;72.40
59148;DHT22;44930;52.878;6.168;2022-08-11T15:13:06;32.20;71.90
59148;DHT22;44930;52.878;6.168;2022-08-11T15:15:32;31.70;71.30
59148;DHT22;44930;52.878;6.168;2022-08-11T15:18:17;31.50;68.80
59148;DHT22;44930;52.878;6.168;2022-08-11T15:20:44;31.70;70.30
59148;DHT22;44930;52.878;6.168;2022-08-11T15:23:29;32.40;70.60
59148;DHT22;44930;52.878;6.168;2022-08-11T15:26:21;32.20;70.80
59148;DHT22;44930;52.878;6.168;2022-08-11T15:29:08;32.40;69.60
59148;DHT22;44930;52.878;6.168;2022-08-11T15:32:05;32.90;68.70
59148;DHT22;44930;52.878;6.168;2022-08-11T15:34:59;31.80;68.00
59148;DHT22;44930;52.878;6.168;2022-08-11T15:37:44;32.70;68.70
59148;DHT22;44930;52.878;6.168;2022-08-11T15:40:21;32.10;68.00
59148;DHT22;44930;52.878;6.168;2022-08-11T15:43:18;32.90;68.20
59148;DHT22;44930;52.878;6.168;2022-08-11T15:49:02;32.60;65.80
59148;DHT22;44930;52.878;6.168;2022-08-11T15:51:36;33.20;68.00
59148;DHT22;44930;52.878;6.168;2022-08-11T15:54:06;32.80;67.70
59148;DHT22;44930;52.878;6.168;2022-08-11T15:56:35;32.60;67.10
59148;DHT22;44930;52.878;6.168;2022-08-11T15:59:02;33.30;67.40
59148;DHT22;44930;52.878;6.168;2022-08-11T16:01:48;33.00;67.60
59148;DHT22;44930;52.878;6.168;2022-08-11T16:04:36;32.60;68.20
59148;DHT22;44930;52.878;6.168;2022-08-11T16:09:39;31.90;70.10
59148;DHT22;44930;52.878;6.168;2022-08-11T16:12:09;31.30;71.00
59148;DHT22;44930;52.878;6.168;2022-08-11T16:14:40;31.20;70.50
59148;DHT22;44930;52.878;6.168;2022-08-11T16:17:27;30.70;71.70
59148;DHT22;44930;52.878;6.168;2022-08-11T16:19:55;30.30;72.00
59148;DHT22;44930;52.878;6.168;2022-08-11T16:22:28;30.20;72.20
59148;DHT22;44930;52.878;6.168;2022-08-11T16:25:02;30.60;73.70
59148;DHT22;44930;52.878;6.168;2022-08-11T16:27:29;29.80;73.90
59148;DHT22;44930;52.878;6.168;2022-08-11T16:29:58;30.00;75.40
59148;DHT22;44930;52.878;6.168;2022-08-11T16:32:24;29.50;75.60
59148;DHT22;44930;52.878;6.168;2022-08-11T16:34:57;29.70;77.50
59148;DHT22;44930;52.878;6.168;2022-08-11T16:37:42;29.50;77.90
59148;DHT22;44930;52.878;6.168;2022-08-11T16:40:27;29.90;79.60
59148;DHT22;44930;52.878;6.168;2022-08-11T16:42:55;29.20;81.00
59148;DHT22;44930;52.878;6.168;2022-08-11T16:45:40;29.10;81.10
59148;DHT22;44930;52.878;6.168;2022-08-11T16:48:26;28.80;81.70
59148;DHT22;44930;52.878;6.168;2022-08-11T16:50:53;28.20;83.30
59148;DHT22;44930;52.878;6.168;2022-08-11T16:53:19;28.70;82.90
59148;DHT22;44930;52.878;6.168;2022-08-11T16:55:46;28.90;83.50
59148;DHT22;44930;52.878;6.168;2022-08-11T16:58:13;28.50;83.90
59148;DHT22;44930;52.878;6.168;2022-08-11T17:01:02;28.10;84.30
59148;DHT22;44930;52.878;6.168;2022-08-11T17:03:29;27.80;84.70
59148;DHT22;44930;52.878;6.168;2022-08-11T17:06:15;28.00;84.70
59148;DHT22;44930;52.878;6.168;2022-08-11T17:09:02;28.30;84.00
59148;DHT22;44930;52.878;6.168;2022-08-11T17:11:53;27.50;84.70
59148;DHT22;44930;52.878;6.168;2022-08-11T17:14:45;27.60;85.70
59148;DHT22;44930;52.878;6.168;2022-08-11T17:17:15;28.10;85.00
59148;DHT22;44930;52.878;6.168;2022-08-11T17:19:52;28.90;86.20
59148;DHT22;44930;52.878;6.168;2022-08-11T17:22:19;28.70;86.90
59148;DHT22;44930;52.878;6.168;2022-08-11T17:25:05;28.00;86.80
59148;DHT22;44930;52.878;6.168;2022-08-11T17:27:33;28.00;87.80
59148;DHT22;44930;52.878;6.168;2022-08-11T17:30:03;27.90;87.90
59148;DHT22;44930;52.878;6.168;2022-08-11T17:32:35;27.60;87.60
59148;DHT22;44930;52.878;6.168;2022-08-11T17:35:22;27.30;87.40
59148;DHT22;44930;52.878;6.168;2022-08-11T17:38:09;27.40;87.70
59148;DHT22;44930;52.878;6.168;2022-08-11T17:40:38;27.80;90.20
59148;DHT22;44930;52.878;6.168;2022-08-11T17:43:08;27.70;90.00
59148;DHT22;44930;52.878;6.168;2022-08-11T17:45:54;27.70;90.40
59148;DHT22;44930;52.878;6.168;2022-08-11T17:48:35;28.90;91.50
59148;DHT22;44930;52.878;6.168;2022-08-11T17:51:07;27.20;91.00
59148;DHT22;44930;52.878;6.168;2022-08-11T17:53:42;28.80;91.80
59148;DHT22;44930;52.878;6.168;2022-08-11T17:56:30;28.30;91.90
59148;DHT22;44930;52.878;6.168;2022-08-11T17:59:16;27.10;91.70
59148;DHT22;44930;52.878;6.168;2022-08-11T18:02:03;26.90;92.10
59148;DHT22;44930;52.878;6.168;2022-08-11T18:04:50;26.30;92.70
59148;DHT22;44930;52.878;6.168;2022-08-11T18:07:17;26.80;93.40
59148;DHT22;44930;52.878;6.168;2022-08-11T18:10:04;28.00;94.20
59148;DHT22;44930;52.878;6.168;2022-08-11T18:12:50;26.10;93.80
59148;DHT22;44930;52.878;6.168;2022-08-11T18:15:38;25.70;93.90
59148;DHT22;44930;52.878;6.168;2022-08-11T18:18:22;26.20;94.50
59148;DHT22;44930;52.878;6.168;2022-08-11T18:21:07;26.30;94.70
59148;DHT22;44930;52.878;6.168;2022-08-11T18:23:52;25.80;95.10
59148;DHT22;44930;52.878;6.168;2022-08-11T18:26:40;26.60;96.40
59148;DHT22;44930;52.878;6.168;2022-08-11T18:29:28;25.90;95.80
59148;DHT22;44930;52.878;6.168;2022-08-11T18:32:15;25.80;96.10
59148;DHT22;44930;52.878;6.168;2022-08-11T18:35:01;25.20;96.10
59148;DHT22;44930;52.878;6.168;2022-08-11T18:37:48;25.00;96.40
59148;DHT22;44930;52.878;6.168;2022-08-11T18:40:34;26.00;97.10
59148;DHT22;44930;52.878;6.168;2022-08-11T18:43:20;25.00;97.10
59148;DHT22;44930;52.878;6.168;2022-08-11T18:46:06;24.90;97.30
59148;DHT22;44930;52.878;6.168;2022-08-11T18:48:55;24.80;97.90
59148;DHT22;44930;52.878;6.168;2022-08-11T18:51:40;24.70;98.10
59148;DHT22;44930;52.878;6.168;2022-08-11T18:54:27;24.80;98.40
59148;DHT22;44930;52.878;6.168;2022-08-11T18:57:12;24.60;98.60
59148;DHT22;44930;52.878;6.168;2022-08-11T18:59:59;24.80;99.00
59148;DHT22;44930;52.878;6.168;2022-08-11T19:02:45;24.30;99.40
59148;DHT22;44930;52.878;6.168;2022-08-11T19:05:31;23.90;99.60
59148;DHT22;44930;52.878;6.168;2022-08-11T19:08:17;24.00;99.90
59148;DHT22;44930;52.878;6.168;2022-08-11T19:11:03;23.80;99.90
59148;DHT22;44930;52.878;6.168;2022-08-11T19:13:49;23.90;99.90
59148;DHT22;44930;52.878;6.168;2022-08-11T19:16:35;23.60;99.90
59148;DHT22;44930;52.878;6.168;2022-08-11T19:19:21;24.00;99.90
59148;DHT22;44930;52.878;6.168;2022-08-11T19:22:07;23.60;99.90
59148;DHT22;44930;52.878;6.168;2022-08-11T19:24:52;25.30;99.90
59148;DHT22;44930;52.878;6.168;2022-08-11T19:27:38;23.30;99.90
59148;DHT22;44930;52.878;6.168;2022-08-11T19:30:24;24.10;99.90
59148;DHT22;44930;52.878;6.168;2022-08-11T19:33:10;23.30;99.90
59148;DHT22;44930;52.878;6.168;2022-08-11T19:35:54;23.60;99.90
59148;DHT22;44930;52.878;6.168;2022-08-11T19:38:40;25.00;99.90